sensor_id;sensor_type;location;lat;lon;timestamp;pressure;altitude;pressure_sealevel;temperature;humidity
50682;BME280;36779;52.168;20.878;2023-02-26T00:01:20;99060.02;;;0.27;77.22
50682;BME280;36779;52.168;20.878;2023-02-26T00:04:09;99063.02;;;0.22;77.32
50682;BME280;36779;52.168;20.878;2023-02-26T00:07:03;99067.70;;;0.18;77.27
50682;BME280;36779;52.168;20.878;2023-02-26T00:09:53;99075.54;;;0.13;77.35
50682;BME280;36779;52.168;20.878;2023-02-26T00:12:44;99080.05;;;0.09;77.43
50682;BME280;36779;52.168;20.878;2023-02-26T00:15:33;99082.66;;;0.05;77.24
50682;BME280;36779;52.168;20.878;2023-02-26T00:18:24;99088.41;;;0.03;77.28
50682;BME280;36779;52.168;20.878;2023-02-26T00:21:19;99093.63;;;0.01;77.40
50682;BME280;36779;52.168;20.878;2023-02-26T00:24:10;99101.16;;;-0.02;77.26
50682;BME280;36779;52.168;20.878;2023-02-26T00:27:01;99108.91;;;-0.02;77.26
50682;BME280;36779;52.168;20.878;2023-02-26T00:29:51;99110.89;;;-0.03;77.26
50682;BME280;36779;52.168;20.878;2023-02-26T00:32:42;99119.39;;;-0.04;77.26
50682;BME280;36779;52.168;20.878;2023-02-26T00:35:34;99115.11;;;-0.07;77.30
50682;BME280;36779;52.168;20.878;2023-02-26T00:38:24;99120.37;;;-0.10;77.19
50682;BME280;36779;52.168;20.878;2023-02-26T00:41:14;99122.86;;;-0.11;77.34
50682;BME280;36779;52.168;20.878;2023-02-26T00:44:07;99120.70;;;-0.14;77.28
50682;BME280;36779;52.168;20.878;2023-02-26T00:47:06;99128.19;;;-0.16;77.12
50682;BME280;36779;52.168;20.878;2023-02-26T00:50:06;99132.38;;;-0.16;77.24
50682;BME280;36779;52.168;20.878;2023-02-26T00:53:06;99137.71;;;-0.19;77.18
50682;BME280;36779;52.168;20.878;2023-02-26T00:55:58;99141.23;;;-0.21;77.17
50682;BME280;36779;52.168;20.878;2023-02-26T00:58:48;99144.16;;;-0.23;77.07
50682;BME280;36779;52.168;20.878;2023-02-26T01:01:41;99147.13;;;-0.28;77.16
50682;BME280;36779;52.168;20.878;2023-02-26T01:04:32;99153.79;;;-0.30;77.14
50682;BME280;36779;52.168;20.878;2023-02-26T01:07:23;99157.09;;;-0.30;77.18
50682;BME280;36779;52.168;20.878;2023-02-26T01:10:14;99165.17;;;-0.31;77.07
50682;BME280;36779;52.168;20.878;2023-02-26T01:13:05;99168.04;;;-0.32;77.13
50682;BME280;36779;52.168;20.878;2023-02-26T01:16:02;99169.69;;;-0.35;77.19
50682;BME280;36779;52.168;20.878;2023-02-26T01:18:57;99171.02;;;-0.38;77.11
50682;BME280;36779;52.168;20.878;2023-02-26T01:21:54;99174.66;;;-0.40;77.01
50682;BME280;36779;52.168;20.878;2023-02-26T01:24:47;99177.63;;;-0.40;77.05
50682;BME280;36779;52.168;20.878;2023-02-26T01:27:37;99183.70;;;-0.40;76.99
50682;BME280;36779;52.168;20.878;2023-02-26T01:30:34;99191.86;;;-0.39;77.09
50682;BME280;36779;52.168;20.878;2023-02-26T01:33:28;99197.20;;;-0.40;77.03
50682;BME280;36779;52.168;20.878;2023-02-26T01:36:23;99205.13;;;-0.43;77.16
50682;BME280;36779;52.168;20.878;2023-02-26T01:39:22;99211.28;;;-0.44;76.98
50682;BME280;36779;52.168;20.878;2023-02-26T01:42:18;99217.17;;;-0.45;77.04
50682;BME280;36779;52.168;20.878;2023-02-26T01:45:13;99224.27;;;-0.47;77.08
50682;BME280;36779;52.168;20.878;2023-02-26T01:48:06;99228.95;;;-0.47;77.08
50682;BME280;36779;52.168;20.878;2023-02-26T01:51:01;99234.60;;;-0.45;77.21
50682;BME280;36779;52.168;20.878;2023-02-26T01:53:51;99242.31;;;-0.46;77.17
50682;BME280;36779;52.168;20.878;2023-02-26T01:56:44;99250.38;;;-0.46;77.03
50682;BME280;36779;52.168;20.878;2023-02-26T01:59:37;99258.10;;;-0.47;77.14
50682;BME280;36779;52.168;20.878;2023-02-26T02:02:32;99266.77;;;-0.49;76.97
50682;BME280;36779;52.168;20.878;2023-02-26T02:05:26;99272.63;;;-0.50;76.93
50682;BME280;36779;52.168;20.878;2023-02-26T02:08:21;99281.34;;;-0.52;77.08
50682;BME280;36779;52.168;20.878;2023-02-26T02:11:12;99285.85;;;-0.54;76.93
50682;BME280;36779;52.168;20.878;2023-02-26T02:14:10;99294.61;;;-0.56;77.06
50682;BME280;36779;52.168;20.878;2023-02-26T02:16:58;99303.25;;;-0.58;77.06
50682;BME280;36779;52.168;20.878;2023-02-26T02:20:04;99312.46;;;-0.57;76.98
50682;BME280;36779;52.168;20.878;2023-02-26T02:23:03;99313.86;;;-0.57;76.89
50682;BME280;36779;52.168;20.878;2023-02-26T02:29:49;99329.45;;;-0.58;76.94
50682;BME280;36779;52.168;20.878;2023-02-26T02:32:44;99334.02;;;-0.58;76.87
50682;BME280;36779;52.168;20.878;2023-02-26T02:35:40;99333.00;;;-0.61;76.81
50682;BME280;36779;52.168;20.878;2023-02-26T02:38:38;99336.56;;;-0.61;76.93
50682;BME280;36779;52.168;20.878;2023-02-26T02:41:34;99338.92;;;-0.61;76.98
50682;BME280;36779;52.168;20.878;2023-02-26T02:44:16;99341.14;;;-0.60;76.86
50682;BME280;36779;52.168;20.878;2023-02-26T02:47:10;99346.50;;;-0.59;76.88
50682;BME280;36779;52.168;20.878;2023-02-26T02:50:06;99348.52;;;-0.60;76.85
50682;BME280;36779;52.168;20.878;2023-02-26T02:53:01;99351.74;;;-0.64;76.82
50682;BME280;36779;52.168;20.878;2023-02-26T02:55:55;99353.52;;;-0.66;77.02
50682;BME280;36779;52.168;20.878;2023-02-26T02:58:51;99354.33;;;-0.68;76.76
50682;BME280;36779;52.168;20.878;2023-02-26T03:01:45;99360.56;;;-0.67;76.85
50682;BME280;36779;52.168;20.878;2023-02-26T03:04:41;99367.70;;;-0.67;76.74
50682;BME280;36779;52.168;20.878;2023-02-26T03:07:35;99371.80;;;-0.66;76.81
50682;BME280;36779;52.168;20.878;2023-02-26T03:10:29;99383.63;;;-0.65;76.94
50682;BME280;36779;52.168;20.878;2023-02-26T03:13:21;99386.91;;;-0.65;76.88
50682;BME280;36779;52.168;20.878;2023-02-26T03:16:27;99399.53;;;-0.66;76.86
50682;BME280;36779;52.168;20.878;2023-02-26T03:19:21;99403.52;;;-0.66;76.90
50682;BME280;36779;52.168;20.878;2023-02-26T03:22:20;99410.85;;;-0.63;76.74
50682;BME280;36779;52.168;20.878;2023-02-26T03:25:23;99418.80;;;-0.60;76.88
50682;BME280;36779;52.168;20.878;2023-02-26T03:28:19;99424.05;;;-0.58;76.81
50682;BME280;36779;52.168;20.878;2023-02-26T03:31:17;99431.55;;;-0.58;76.72
50682;BME280;36779;52.168;20.878;2023-02-26T03:34:14;99435.86;;;-0.59;76.78
50682;BME280;36779;52.168;20.878;2023-02-26T03:37:10;99438.24;;;-0.61;76.83
50682;BME280;36779;52.168;20.878;2023-02-26T03:40:10;99440.15;;;-0.63;76.82
50682;BME280;36779;52.168;20.878;2023-02-26T03:43:03;99445.09;;;-0.64;76.73
50682;BME280;36779;52.168;20.878;2023-02-26T03:45:58;99446.58;;;-0.63;76.73
50682;BME280;36779;52.168;20.878;2023-02-26T03:48:50;99454.31;;;-0.61;76.70
50682;BME280;36779;52.168;20.878;2023-02-26T03:51:45;99456.63;;;-0.61;76.59
50682;BME280;36779;52.168;20.878;2023-02-26T03:54:41;99463.13;;;-0.62;76.76
50682;BME280;36779;52.168;20.878;2023-02-26T03:57:32;99469.66;;;-0.61;76.85
50682;BME280;36779;52.168;20.878;2023-02-26T04:00:38;99471.45;;;-0.61;76.74
50682;BME280;36779;52.168;20.878;2023-02-26T04:03:37;99474.16;;;-0.63;76.73
50682;BME280;36779;52.168;20.878;2023-02-26T04:06:30;99475.20;;;-0.63;76.62
50682;BME280;36779;52.168;20.878;2023-02-26T04:09:21;99480.10;;;-0.61;76.73
50682;BME280;36779;52.168;20.878;2023-02-26T04:12:11;99484.48;;;-0.58;76.65
50682;BME280;36779;52.168;20.878;2023-02-26T04:15:06;99489.48;;;-0.57;76.64
50682;BME280;36779;52.168;20.878;2023-02-26T04:17:58;99493.16;;;-0.58;76.73
50682;BME280;36779;52.168;20.878;2023-02-26T04:20:48;99494.84;;;-0.59;76.65
50682;BME280;36779;52.168;20.878;2023-02-26T04:23:38;99498.18;;;-0.59;76.72
50682;BME280;36779;52.168;20.878;2023-02-26T04:26:31;99505.59;;;-0.61;76.61
50682;BME280;36779;52.168;20.878;2023-02-26T04:29:20;99506.98;;;-0.61;76.75
50682;BME280;36779;52.168;20.878;2023-02-26T04:32:09;99511.88;;;-0.61;76.67
50682;BME280;36779;52.168;20.878;2023-02-26T04:35:00;99513.14;;;-0.59;76.71
50682;BME280;36779;52.168;20.878;2023-02-26T04:37:50;99515.75;;;-0.59;76.60
50682;BME280;36779;52.168;20.878;2023-02-26T04:40:40;99516.23;;;-0.61;76.64
50682;BME280;36779;52.168;20.878;2023-02-26T04:43:31;99519.90;;;-0.63;76.56
50682;BME280;36779;52.168;20.878;2023-02-26T04:46:25;99521.24;;;-0.64;76.63
50682;BME280;36779;52.168;20.878;2023-02-26T04:49:15;99525.64;;;-0.65;76.74
50682;BME280;36779;52.168;20.878;2023-02-26T04:52:05;99530.01;;;-0.63;76.67
50682;BME280;36779;52.168;20.878;2023-02-26T04:54:56;99532.89;;;-0.62;76.69
50682;BME280;36779;52.168;20.878;2023-02-26T04:57:45;99535.95;;;-0.63;76.63
50682;BME280;36779;52.168;20.878;2023-02-26T05:00:35;99541.50;;;-0.62;76.68
50682;BME280;36779;52.168;20.878;2023-02-26T05:03:27;99541.42;;;-0.64;76.68
50682;BME280;36779;52.168;20.878;2023-02-26T05:06:17;99547.84;;;-0.65;76.66
50682;BME280;36779;52.168;20.878;2023-02-26T05:09:13;99552.44;;;-0.66;76.77
50682;BME280;36779;52.168;20.878;2023-02-26T05:12:03;99557.64;;;-0.66;76.64
50682;BME280;36779;52.168;20.878;2023-02-26T05:14:53;99564.92;;;-0.65;76.59
50682;BME280;36779;52.168;20.878;2023-02-26T05:17:44;99566.63;;;-0.67;76.62
50682;BME280;36779;52.168;20.878;2023-02-26T05:20:34;99571.17;;;-0.67;76.62
50682;BME280;36779;52.168;20.878;2023-02-26T05:23:24;99575.41;;;-0.68;76.61
50682;BME280;36779;52.168;20.878;2023-02-26T05:26:14;99578.37;;;-0.70;76.67
50682;BME280;36779;52.168;20.878;2023-02-26T05:28:54;99583.20;;;-0.72;76.67
50682;BME280;36779;52.168;20.878;2023-02-26T05:31:49;99588.67;;;-0.71;76.60
50682;BME280;36779;52.168;20.878;2023-02-26T05:34:41;99594.23;;;-0.67;76.56
50682;BME280;36779;52.168;20.878;2023-02-26T05:37:31;99601.29;;;-0.66;76.61
50682;BME280;36779;52.168;20.878;2023-02-26T05:40:20;99613.15;;;-0.66;76.59
50682;BME280;36779;52.168;20.878;2023-02-26T05:43:11;99624.23;;;-0.67;76.55
50682;BME280;36779;52.168;20.878;2023-02-26T05:46:01;99629.33;;;-0.73;76.43
50682;BME280;36779;52.168;20.878;2023-02-26T05:48:55;99640.19;;;-0.81;76.50
50682;BME280;36779;52.168;20.878;2023-02-26T05:51:46;99645.87;;;-0.87;76.47
50682;BME280;36779;52.168;20.878;2023-02-26T05:54:35;99652.45;;;-0.94;76.39
50682;BME280;36779;52.168;20.878;2023-02-26T05:57:24;99657.91;;;-1.00;76.44
50682;BME280;36779;52.168;20.878;2023-02-26T06:00:17;99668.05;;;-1.05;76.29
50682;BME280;36779;52.168;20.878;2023-02-26T06:03:07;99674.38;;;-1.11;76.41
50682;BME280;36779;52.168;20.878;2023-02-26T06:05:58;99677.64;;;-1.15;76.33
50682;BME280;36779;52.168;20.878;2023-02-26T06:08:48;99690.49;;;-1.20;76.29
50682;BME280;36779;52.168;20.878;2023-02-26T06:11:46;99692.59;;;-1.23;76.29
50682;BME280;36779;52.168;20.878;2023-02-26T06:14:35;99698.21;;;-1.28;76.20
50682;BME280;36779;52.168;20.878;2023-02-26T06:17:27;99705.69;;;-1.33;76.31
50682;BME280;36779;52.168;20.878;2023-02-26T06:20:17;99710.96;;;-1.36;76.29
50682;BME280;36779;52.168;20.878;2023-02-26T06:23:07;99719.61;;;-1.41;76.23
50682;BME280;36779;52.168;20.878;2023-02-26T06:25:56;99725.33;;;-1.43;76.33
50682;BME280;36779;52.168;20.878;2023-02-26T06:28:47;99731.15;;;-1.44;76.19
50682;BME280;36779;52.168;20.878;2023-02-26T06:31:37;99739.13;;;-1.46;76.09
50682;BME280;36779;52.168;20.878;2023-02-26T06:34:34;99746.06;;;-1.48;76.11
50682;BME280;36779;52.168;20.878;2023-02-26T06:37:30;99749.59;;;-1.49;76.19
50682;BME280;36779;52.168;20.878;2023-02-26T06:40:20;99752.77;;;-1.49;76.05
50682;BME280;36779;52.168;20.878;2023-02-26T06:43:11;99754.53;;;-1.49;76.13
50682;BME280;36779;52.168;20.878;2023-02-26T06:46:01;99756.58;;;-1.49;76.05
50682;BME280;36779;52.168;20.878;2023-02-26T06:48:51;99761.30;;;-1.49;76.25
50682;BME280;36779;52.168;20.878;2023-02-26T06:51:48;99766.54;;;-1.49;76.09
50682;BME280;36779;52.168;20.878;2023-02-26T06:54:37;99769.77;;;-1.51;75.95
50682;BME280;36779;52.168;20.878;2023-02-26T06:57:26;99774.66;;;-1.51;76.19
50682;BME280;36779;52.168;20.878;2023-02-26T07:00:18;99783.64;;;-1.49;76.02
50682;BME280;36779;52.168;20.878;2023-02-26T07:03:14;99787.95;;;-1.49;75.87
50682;BME280;36779;52.168;20.878;2023-02-26T07:06:06;99797.86;;;-1.48;76.05
50682;BME280;36779;52.168;20.878;2023-02-26T07:09:18;99809.30;;;-1.48;76.07
50682;BME280;36779;52.168;20.878;2023-02-26T07:12:09;99821.95;;;-1.47;75.88
50682;BME280;36779;52.168;20.878;2023-02-26T07:14:59;99826.27;;;-1.40;76.00
50682;BME280;36779;52.168;20.878;2023-02-26T07:17:49;99827.29;;;-1.34;76.09
50682;BME280;36779;52.168;20.878;2023-02-26T07:20:39;99830.09;;;-1.29;75.99
50682;BME280;36779;52.168;20.878;2023-02-26T07:23:30;99834.01;;;-1.26;76.01
50682;BME280;36779;52.168;20.878;2023-02-26T07:26:12;99836.81;;;-1.23;75.97
50682;BME280;36779;52.168;20.878;2023-02-26T07:29:05;99845.81;;;-1.19;75.96
50682;BME280;36779;52.168;20.878;2023-02-26T07:31:55;99846.55;;;-1.14;76.11
50682;BME280;36779;52.168;20.878;2023-02-26T07:34:47;99852.02;;;-1.10;75.95
50682;BME280;36779;52.168;20.878;2023-02-26T07:37:38;99855.61;;;-1.07;75.81
50682;BME280;36779;52.168;20.878;2023-02-26T07:40:27;99857.80;;;-1.03;75.92
50682;BME280;36779;52.168;20.878;2023-02-26T07:43:16;99866.52;;;-1.00;75.79
50682;BME280;36779;52.168;20.878;2023-02-26T07:46:06;99876.02;;;-0.96;75.90
50682;BME280;36779;52.168;20.878;2023-02-26T07:48:56;99885.99;;;-0.94;75.81
50682;BME280;36779;52.168;20.878;2023-02-26T07:51:48;99891.84;;;-0.92;75.68
50682;BME280;36779;52.168;20.878;2023-02-26T07:54:38;99890.45;;;-0.92;75.69
50682;BME280;36779;52.168;20.878;2023-02-26T07:57:18;99891.72;;;-0.90;75.75
50682;BME280;36779;52.168;20.878;2023-02-26T08:00:11;99896.89;;;-0.87;75.63
50682;BME280;36779;52.168;20.878;2023-02-26T08:03:00;99900.16;;;-0.84;75.61
50682;BME280;36779;52.168;20.878;2023-02-26T08:05:51;99900.85;;;-0.83;75.58
50682;BME280;36779;52.168;20.878;2023-02-26T08:08:39;99904.34;;;-0.84;75.50
50682;BME280;36779;52.168;20.878;2023-02-26T08:11:30;99910.77;;;-0.86;75.62
50682;BME280;36779;52.168;20.878;2023-02-26T08:14:21;99914.45;;;-0.86;75.57
50682;BME280;36779;52.168;20.878;2023-02-26T08:17:10;99921.94;;;-0.86;75.56
50682;BME280;36779;52.168;20.878;2023-02-26T08:20:00;99933.06;;;-0.85;75.71
50682;BME280;36779;52.168;20.878;2023-02-26T08:22:52;99938.73;;;-0.84;75.55
50682;BME280;36779;52.168;20.878;2023-02-26T08:25:42;99946.40;;;-0.84;75.50
50682;BME280;36779;52.168;20.878;2023-02-26T08:28:32;99949.18;;;-0.84;75.51
50682;BME280;36779;52.168;20.878;2023-02-26T08:31:22;99953.20;;;-0.86;75.41
50682;BME280;36779;52.168;20.878;2023-02-26T08:34:15;99958.86;;;-0.88;75.49
50682;BME280;36779;52.168;20.878;2023-02-26T08:37:07;99959.98;;;-0.86;75.52
50682;BME280;36779;52.168;20.878;2023-02-26T08:40:02;99965.05;;;-0.84;75.61
50682;BME280;36779;52.168;20.878;2023-02-26T08:42:55;99968.39;;;-0.84;75.44
50682;BME280;36779;52.168;20.878;2023-02-26T08:45:58;99973.79;;;-0.84;75.31
50682;BME280;36779;52.168;20.878;2023-02-26T08:48:51;99977.70;;;-0.85;75.25
50682;BME280;36779;52.168;20.878;2023-02-26T08:51:50;99986.38;;;-0.87;75.32
50682;BME280;36779;52.168;20.878;2023-02-26T08:54:47;99990.05;;;-0.87;75.49
50682;BME280;36779;52.168;20.878;2023-02-26T08:57:39;100002.58;;;-0.89;75.24
50682;BME280;36779;52.168;20.878;2023-02-26T09:00:33;100011.16;;;-0.90;75.28
50682;BME280;36779;52.168;20.878;2023-02-26T09:03:26;100018.55;;;-0.88;75.27
50682;BME280;36779;52.168;20.878;2023-02-26T09:06:17;100023.00;;;-0.89;75.16
50682;BME280;36779;52.168;20.878;2023-02-26T09:09:15;100031.26;;;-0.90;75.14
50682;BME280;36779;52.168;20.878;2023-02-26T09:12:00;100040.38;;;-0.91;75.20
50682;BME280;36779;52.168;20.878;2023-02-26T09:14:50;100042.23;;;-0.92;75.09
50682;BME280;36779;52.168;20.878;2023-02-26T09:18:06;100050.06;;;-0.92;75.11
50682;BME280;36779;52.168;20.878;2023-02-26T09:21:05;100056.94;;;-0.91;75.12
50682;BME280;36779;52.168;20.878;2023-02-26T09:23:58;100060.80;;;-0.86;75.08
50682;BME280;36779;52.168;20.878;2023-02-26T09:26:45;100062.98;;;-0.82;75.09
50682;BME280;36779;52.168;20.878;2023-02-26T09:29:43;100063.08;;;-0.78;75.18
50682;BME280;36779;52.168;20.878;2023-02-26T09:32:34;100064.60;;;-0.75;75.15
50682;BME280;36779;52.168;20.878;2023-02-26T09:35:10;100068.62;;;-0.75;75.06
50682;BME280;36779;52.168;20.878;2023-02-26T09:38:00;100072.77;;;-0.74;75.00
50682;BME280;36779;52.168;20.878;2023-02-26T09:40:59;100080.59;;;-0.73;75.01
50682;BME280;36779;52.168;20.878;2023-02-26T09:44:09;100088.44;;;-0.70;75.07
50682;BME280;36779;52.168;20.878;2023-02-26T09:47:04;100093.40;;;-0.66;74.98
50682;BME280;36779;52.168;20.878;2023-02-26T09:49:55;100100.77;;;-0.61;75.07
50682;BME280;36779;52.168;20.878;2023-02-26T09:52:50;100102.67;;;-0.58;74.78
50682;BME280;36779;52.168;20.878;2023-02-26T09:56:00;100107.14;;;-0.57;74.92
50682;BME280;36779;52.168;20.878;2023-02-26T09:58:59;100110.67;;;-0.58;74.90
50682;BME280;36779;52.168;20.878;2023-02-26T10:01:56;100108.89;;;-0.57;74.88
50682;BME280;36779;52.168;20.878;2023-02-26T10:04:55;100113.60;;;-0.57;74.83
50682;BME280;36779;52.168;20.878;2023-02-26T10:07:43;100118.56;;;-0.56;74.78
50682;BME280;36779;52.168;20.878;2023-02-26T10:10:44;100125.28;;;-0.52;74.90
50682;BME280;36779;52.168;20.878;2023-02-26T10:13:49;100122.66;;;-0.48;74.84
50682;BME280;36779;52.168;20.878;2023-02-26T10:16:50;100130.05;;;-0.44;74.72
50682;BME280;36779;52.168;20.878;2023-02-26T10:19:44;100135.23;;;-0.43;74.83
50682;BME280;36779;52.168;20.878;2023-02-26T10:26:10;100137.55;;;-0.41;74.89
50682;BME280;36779;52.168;20.878;2023-02-26T10:29:01;100141.52;;;-0.38;74.91
50682;BME280;36779;52.168;20.878;2023-02-26T10:32:04;100143.54;;;-0.34;75.05
50682;BME280;36779;52.168;20.878;2023-02-26T10:38:28;100151.70;;;-0.28;74.81
50682;BME280;36779;52.168;20.878;2023-02-26T10:41:47;100155.92;;;-0.31;74.68
50682;BME280;36779;52.168;20.878;2023-02-26T10:44:56;100162.08;;;-0.32;74.74
50682;BME280;36779;52.168;20.878;2023-02-26T10:48:17;100170.55;;;-0.33;74.68
50682;BME280;36779;52.168;20.878;2023-02-26T10:51:13;100174.18;;;-0.32;74.75
50682;BME280;36779;52.168;20.878;2023-02-26T10:54:18;100184.48;;;-0.35;74.65
50682;BME280;36779;52.168;20.878;2023-02-26T10:57:22;100185.30;;;-0.37;74.61
50682;BME280;36779;52.168;20.878;2023-02-26T11:00:19;100191.65;;;-0.35;74.61
50682;BME280;36779;52.168;20.878;2023-02-26T11:03:20;100192.40;;;-0.33;74.68
50682;BME280;36779;52.168;20.878;2023-02-26T11:06:20;100192.05;;;-0.28;74.63
50682;BME280;36779;52.168;20.878;2023-02-26T11:09:22;100198.45;;;-0.25;74.70
50682;BME280;36779;52.168;20.878;2023-02-26T11:12:20;100201.23;;;-0.18;74.73
50682;BME280;36779;52.168;20.878;2023-02-26T11:15:49;100202.93;;;-0.10;74.76
50682;BME280;36779;52.168;20.878;2023-02-26T11:18:52;100208.78;;;-0.03;74.66
50682;BME280;36779;52.168;20.878;2023-02-26T11:21:47;100217.36;;;0.05;74.76
50682;BME280;36779;52.168;20.878;2023-02-26T11:28:34;100218.46;;;0.13;74.58
50682;BME280;36779;52.168;20.878;2023-02-26T11:31:35;100223.25;;;0.14;74.43
50682;BME280;36779;52.168;20.878;2023-02-26T11:34:35;100226.95;;;0.08;74.22
50682;BME280;36779;52.168;20.878;2023-02-26T11:37:35;100230.80;;;0.06;74.23
50682;BME280;36779;52.168;20.878;2023-02-26T11:40:38;100231.05;;;0.02;74.22
50682;BME280;36779;52.168;20.878;2023-02-26T11:43:41;100238.11;;;0.03;74.19
50682;BME280;36779;52.168;20.878;2023-02-26T11:47:05;100242.09;;;0.07;74.29
50682;BME280;36779;52.168;20.878;2023-02-26T11:50:11;100244.60;;;0.11;74.30
50682;BME280;36779;52.168;20.878;2023-02-26T11:53:24;100251.73;;;0.11;74.19
50682;BME280;36779;52.168;20.878;2023-02-26T11:56:34;100255.56;;;0.06;73.95
50682;BME280;36779;52.168;20.878;2023-02-26T11:59:40;100257.48;;;0.04;74.01
50682;BME280;36779;52.168;20.878;2023-02-26T12:03:01;100266.22;;;0.03;74.06
50682;BME280;36779;52.168;20.878;2023-02-26T12:05:57;100270.49;;;0.05;73.98
50682;BME280;36779;52.168;20.878;2023-02-26T12:08:54;100276.80;;;0.02;73.88
50682;BME280;36779;52.168;20.878;2023-02-26T12:12:21;100284.96;;;0.00;73.96
50682;BME280;36779;52.168;20.878;2023-02-26T12:15:33;100287.98;;;-0.01;74.03
50682;BME280;36779;52.168;20.878;2023-02-26T12:18:46;100289.13;;;-0.02;73.96
50682;BME280;36779;52.168;20.878;2023-02-26T12:22:12;100294.47;;;-0.01;74.02
50682;BME280;36779;52.168;20.878;2023-02-26T12:25:42;100293.60;;;0.02;74.06
50682;BME280;36779;52.168;20.878;2023-02-26T12:32:29;100298.94;;;0.11;74.07
50682;BME280;36779;52.168;20.878;2023-02-26T12:35:48;100300.86;;;0.14;73.98
50682;BME280;36779;52.168;20.878;2023-02-26T12:38:46;100306.10;;;0.17;73.86
50682;BME280;36779;52.168;20.878;2023-02-26T12:41:54;100307.30;;;0.17;73.94
50682;BME280;36779;52.168;20.878;2023-02-26T12:44:58;100309.38;;;0.20;73.97
50682;BME280;36779;52.168;20.878;2023-02-26T12:48:06;100313.48;;;0.21;74.00
50682;BME280;36779;52.168;20.878;2023-02-26T12:51:11;100314.52;;;0.25;74.04
50682;BME280;36779;52.168;20.878;2023-02-26T12:54:17;100322.97;;;0.29;73.99
50682;BME280;36779;52.168;20.878;2023-02-26T12:57:31;100322.73;;;0.30;74.04
50682;BME280;36779;52.168;20.878;2023-02-26T13:00:43;100325.94;;;0.35;73.98
50682;BME280;36779;52.168;20.878;2023-02-26T13:10:15;100334.12;;;0.43;73.88
50682;BME280;36779;52.168;20.878;2023-02-26T13:16:43;100334.17;;;0.50;73.90
50682;BME280;36779;52.168;20.878;2023-02-26T13:19:40;100338.48;;;0.57;73.84
50682;BME280;36779;52.168;20.878;2023-02-26T13:22:44;100339.34;;;0.60;73.85
50682;BME280;36779;52.168;20.878;2023-02-26T13:25:51;100345.79;;;0.63;73.78
50682;BME280;36779;52.168;20.878;2023-02-26T13:29:01;100345.74;;;0.66;73.63
50682;BME280;36779;52.168;20.878;2023-02-26T13:31:55;100352.52;;;0.69;73.70
50682;BME280;36779;52.168;20.878;2023-02-26T13:34:44;100356.21;;;0.69;73.49
50682;BME280;36779;52.168;20.878;2023-02-26T13:37:41;100359.57;;;0.66;73.42
50682;BME280;36779;52.168;20.878;2023-02-26T13:40:50;100360.56;;;0.67;73.52
50682;BME280;36779;52.168;20.878;2023-02-26T13:44:02;100362.71;;;0.69;73.53
50682;BME280;36779;52.168;20.878;2023-02-26T13:47:16;100364.90;;;0.73;73.49
50682;BME280;36779;52.168;20.878;2023-02-26T13:50:25;100364.52;;;0.76;73.52
50682;BME280;36779;52.168;20.878;2023-02-26T13:53:50;100368.48;;;0.77;73.37
50682;BME280;36779;52.168;20.878;2023-02-26T13:57:14;100372.44;;;0.81;73.41
50682;BME280;36779;52.168;20.878;2023-02-26T14:00:26;100377.04;;;0.80;73.34
50682;BME280;36779;52.168;20.878;2023-02-26T14:03:41;100377.10;;;0.79;73.31
50682;BME280;36779;52.168;20.878;2023-02-26T14:06:44;100377.94;;;0.80;73.27
50682;BME280;36779;52.168;20.878;2023-02-26T14:09:53;100377.34;;;0.81;73.32
50682;BME280;36779;52.168;20.878;2023-02-26T14:13:13;100384.30;;;0.87;73.35
50682;BME280;36779;52.168;20.878;2023-02-26T14:16:08;100386.35;;;0.90;73.24
50682;BME280;36779;52.168;20.878;2023-02-26T14:19:21;100387.02;;;0.91;73.27
50682;BME280;36779;52.168;20.878;2023-02-26T14:22:19;100389.73;;;0.89;73.09
50682;BME280;36779;52.168;20.878;2023-02-26T14:25:18;100397.71;;;0.88;73.13
50682;BME280;36779;52.168;20.878;2023-02-26T14:28:33;100395.39;;;0.86;73.00
50682;BME280;36779;52.168;20.878;2023-02-26T14:32:04;100400.17;;;0.85;73.10
50682;BME280;36779;52.168;20.878;2023-02-26T14:35:02;100404.27;;;0.81;73.05
50682;BME280;36779;52.168;20.878;2023-02-26T14:38:02;100406.39;;;0.78;72.97
50682;BME280;36779;52.168;20.878;2023-02-26T14:40:55;100410.63;;;0.77;73.01
50682;BME280;36779;52.168;20.878;2023-02-26T14:43:51;100414.80;;;0.78;72.99
50682;BME280;36779;52.168;20.878;2023-02-26T14:46:45;100418.39;;;0.79;73.00
50682;BME280;36779;52.168;20.878;2023-02-26T14:49:36;100416.91;;;0.80;73.09
50682;BME280;36779;52.168;20.878;2023-02-26T14:52:50;100425.52;;;0.80;72.88
50682;BME280;36779;52.168;20.878;2023-02-26T14:55:58;100425.60;;;0.76;72.85
50682;BME280;36779;52.168;20.878;2023-02-26T14:59:04;100428.67;;;0.71;72.84
50682;BME280;36779;52.168;20.878;2023-02-26T15:02:05;100434.58;;;0.69;72.88
50682;BME280;36779;52.168;20.878;2023-02-26T15:05:22;100437.85;;;0.67;72.87
50682;BME280;36779;52.168;20.878;2023-02-26T15:08:30;100444.02;;;0.64;72.83
50682;BME280;36779;52.168;20.878;2023-02-26T15:11:50;100445.44;;;0.64;72.84
50682;BME280;36779;52.168;20.878;2023-02-26T15:21:46;100456.61;;;0.72;72.73
50682;BME280;36779;52.168;20.878;2023-02-26T15:24:51;100459.41;;;0.75;72.76
50682;BME280;36779;52.168;20.878;2023-02-26T15:28:22;100461.92;;;0.79;72.85
50682;BME280;36779;52.168;20.878;2023-02-26T15:31:13;100467.32;;;0.80;72.73
50682;BME280;36779;52.168;20.878;2023-02-26T15:34:30;100472.23;;;0.77;72.69
50682;BME280;36779;52.168;20.878;2023-02-26T15:37:25;100478.42;;;0.76;72.82
50682;BME280;36779;52.168;20.878;2023-02-26T15:40:37;100477.62;;;0.78;72.77
50682;BME280;36779;52.168;20.878;2023-02-26T15:43:31;100477.17;;;0.76;72.82
50682;BME280;36779;52.168;20.878;2023-02-26T15:46:31;100482.89;;;0.77;72.83
50682;BME280;36779;52.168;20.878;2023-02-26T15:49:32;100486.14;;;0.78;72.80
50682;BME280;36779;52.168;20.878;2023-02-26T15:52:26;100489.88;;;0.75;72.86
50682;BME280;36779;52.168;20.878;2023-02-26T15:58:47;100498.92;;;0.70;72.76
50682;BME280;36779;52.168;20.878;2023-02-26T16:01:53;100507.34;;;0.66;72.78